Time;durP1;ratioP1;P1;durP2;ratioP2;P2;SDS_P1;SDS_P2;PMS_P1;PMS_P2;Temp;Humidity;BMP_temperature;BMP_pressure;BME280_temperature;BME280_humidity;BME280_pressure;Samples;Min_cycle;Max_cycle;Signal;HPM_P1;HPM_P2
2024/03/31 00:00:00;;;;;;;30.17;28.67;;;;;;;;;;5102508;28;20476;-70
2024/03/31 00:02:29;;;;;;;29.30;27.90;;;;;;;;;;5093811;28;20497;-69
2024/03/31 00:04:55;;;;;;;29.70;28.30;;;;;;;;;;5101052;28;20902;-71
2024/03/31 00:07:22;;;;;;;29.57;28.17;;;;;;;;;;5097383;28;20554;-70
2024/03/31 00:09:49;;;;;;;30.10;28.70;;;;;;;;;;5104790;28;20481;-71
2024/03/31 00:12:16;;;;;;;30.27;28.80;;;;;;;;;;5098148;28;20493;-69
2024/03/31 00:14:42;;;;;;;30.37;28.97;;;;;;;;;;5106117;28;20453;-70
2024/03/31 00:17:09;;;;;;;31.77;30.27;;;;;;;;;;5101713;28;20460;-69
2024/03/31 00:19:38;;;;;;;31.20;29.70;;;;;;;;;;5103303;28;20470;-70
2024/03/31 00:22:05;;;;;;;30.17;28.77;;;;;;;;;;5100470;28;20927;-70
2024/03/31 00:24:31;;;;;;;30.43;28.93;;;;;;;;;;5103908;28;20522;-69
2024/03/31 00:26:58;;;;;;;31.80;30.30;;;;;;;;;;5096755;28;20467;-70
2024/03/31 00:29:25;;;;;;;31.80;30.30;;;;;;;;;;5105321;28;20465;-69
2024/03/31 00:31:52;;;;;;;32.07;30.57;;;;;;;;;;5101209;28;20828;-70
2024/03/31 00:34:18;;;;;;;30.47;28.97;;;;;;;;;;5104359;28;20446;-69
2024/03/31 00:36:46;;;;;;;30.63;29.13;;;;;;;;;;5098637;28;20690;-70
2024/03/31 00:39:13;;;;;;;33.00;31.40;;;;;;;;;;5097743;28;20457;-69
2024/03/31 00:41:40;;;;;;;31.90;30.40;;;;;;;;;;5104832;28;20462;-69
2024/03/31 00:44:06;;;;;;;33.03;31.50;;;;;;;;;;5108437;28;20840;-70
2024/03/31 00:46:33;;;;;;;31.60;30.10;;;;;;;;;;5100188;28;20458;-69
2024/03/31 00:49:00;;;;;;;30.07;28.67;;;;;;;;;;5098027;28;20551;-69
2024/03/31 00:51:27;;;;;;;32.40;30.87;;;;;;;;;;5107539;28;20465;-70
2024/03/31 00:53:54;;;;;;;34.27;32.60;;;;;;;;;;5105072;28;20456;-70
2024/03/31 00:56:21;;;;;;;31.40;29.90;;;;;;;;;;5098679;28;20497;-69
2024/03/31 00:58:48;;;;;;;32.63;31.13;;;;;;;;;;5069989;28;21878;-71
2024/03/31 01:01:15;;;;;;;32.13;30.63;;;;;;;;;;5047061;28;20492;-70
2024/03/31 01:03:41;;;;;;;32.80;31.33;;;;;;;;;;5045809;28;20571;-70
2024/03/31 01:06:10;;;;;;;32.40;31.00;;;;;;;;;;5049771;28;20628;-70
2024/03/31 01:08:36;;;;;;;33.13;31.63;;;;;;;;;;5066926;28;21093;-69
2024/03/31 01:11:05;;;;;;;32.30;30.90;;;;;;;;;;5065872;28;20461;-70
2024/03/31 01:13:32;;;;;;;34.10;32.60;;;;;;;;;;5068815;28;20946;-69
2024/03/31 01:16:00;;;;;;;35.33;33.77;;;;;;;;;;5068684;28;20463;-68
2024/03/31 01:18:26;;;;;;;34.03;32.53;;;;;;;;;;5068478;28;20494;-69
2024/03/31 01:20:53;;;;;;;34.83;33.33;;;;;;;;;;5069415;28;20469;-69
2024/03/31 01:23:20;;;;;;;34.10;32.50;;;;;;;;;;5068254;28;20496;-69
2024/03/31 01:25:49;;;;;;;31.40;29.97;;;;;;;;;;5068687;28;20469;-69
2024/03/31 01:28:15;;;;;;;30.10;28.70;;;;;;;;;;5069282;28;20484;-70
2024/03/31 01:30:42;;;;;;;31.80;30.30;;;;;;;;;;5069848;28;20484;-70
2024/03/31 01:33:08;;;;;;;32.00;30.60;;;;;;;;;;5065497;28;21073;-70
2024/03/31 01:35:35;;;;;;;30.70;29.30;;;;;;;;;;5067311;28;21483;-70
2024/03/31 01:38:02;;;;;;;33.10;31.50;;;;;;;;;;5065412;28;20470;-69
2024/03/31 01:40:29;;;;;;;30.57;29.17;;;;;;;;;;5066621;28;21112;-69
2024/03/31 01:42:56;;;;;;;31.73;30.27;;;;;;;;;;5069225;28;21019;-69
2024/03/31 01:45:23;;;;;;;31.43;30.03;;;;;;;;;;5070633;28;20473;-70
2024/03/31 01:47:49;;;;;;;32.00;30.57;;;;;;;;;;5072167;28;20978;-69
2024/03/31 01:50:17;;;;;;;32.53;31.03;;;;;;;;;;5073636;28;20462;-71
2024/03/31 01:52:44;;;;;;;32.90;31.40;;;;;;;;;;5072222;28;20449;-70
2024/03/31 01:55:10;;;;;;;34.63;33.03;;;;;;;;;;5072783;28;20492;-70
2024/03/31 01:57:37;;;;;;;32.67;31.17;;;;;;;;;;5085419;28;21016;-70
2024/03/31 02:00:06;;;;;;;33.03;31.53;;;;;;;;;;5091181;28;20466;-68
2024/03/31 02:02:33;;;;;;;31.60;30.20;;;;;;;;;;5092839;28;20552;-69
2024/03/31 02:04:59;;;;;;;32.10;30.70;;;;;;;;;;5099093;28;20923;-70
2024/03/31 02:07:26;;;;;;;33.33;31.83;;;;;;;;;;5103975;28;20462;-70
2024/03/31 02:09:52;;;;;;;32.97;31.47;;;;;;;;;;5099426;28;20474;-70
2024/03/31 02:12:19;;;;;;;32.83;31.43;;;;;;;;;;5091216;28;20886;-70
2024/03/31 02:14:45;;;;;;;31.70;30.30;;;;;;;;;;5076162;28;20969;-69
2024/03/31 02:17:14;;;;;;;33.03;31.63;;;;;;;;;;5083071;28;20481;-69
2024/03/31 02:19:40;;;;;;;32.83;31.43;;;;;;;;;;5086577;28;20455;-70
2024/03/31 02:22:07;;;;;;;33.27;31.77;;;;;;;;;;5078209;28;20507;-70
2024/03/31 02:24:33;;;;;;;32.47;31.07;;;;;;;;;;5084502;28;20459;-70
2024/03/31 02:27:00;;;;;;;32.63;31.13;;;;;;;;;;5081939;28;20466;-70
2024/03/31 02:29:26;;;;;;;30.90;29.50;;;;;;;;;;5080816;28;20467;-70
2024/03/31 02:31:54;;;;;;;31.70;30.30;;;;;;;;;;5080385;28;20956;-69
2024/03/31 02:34:22;;;;;;;32.10;30.70;;;;;;;;;;5083914;28;20549;-69
2024/03/31 02:36:49;;;;;;;32.80;31.37;;;;;;;;;;5084057;28;20529;-70
2024/03/31 02:39:15;;;;;;;29.97;28.67;;;;;;;;;;5081062;28;20520;-69
2024/03/31 02:41:42;;;;;;;31.80;30.37;;;;;;;;;;5083031;28;20532;-70
2024/03/31 02:44:08;;;;;;;31.73;30.33;;;;;;;;;;5086139;28;20994;-69
2024/03/31 02:46:36;;;;;;;32.70;31.33;;;;;;;;;;5079913;28;20478;-70
2024/03/31 02:49:02;;;;;;;29.63;28.43;;;;;;;;;;5089689;28;20454;-69
2024/03/31 02:51:30;;;;;;;32.37;31.07;;;;;;;;;;5072520;28;20468;-70
2024/03/31 02:53:56;;;;;;;32.80;31.40;;;;;;;;;;5077436;28;20829;-70
2024/03/31 02:56:23;;;;;;;33.63;32.23;;;;;;;;;;5079858;28;20465;-70
2024/03/31 02:58:50;;;;;;;33.40;32.00;;;;;;;;;;5081964;28;20477;-69
2024/03/31 03:01:17;;;;;;;33.70;32.30;;;;;;;;;;5080194;28;20969;-71
2024/03/31 03:03:43;;;;;;;34.97;33.47;;;;;;;;;;5089051;28;20478;-71
2024/03/31 03:06:10;;;;;;;35.80;34.30;;;;;;;;;;5084628;28;20543;-69
2024/03/31 03:08:39;;;;;;;31.83;30.53;;;;;;;;;;5088572;28;21006;-71
2024/03/31 03:11:06;;;;;;;35.87;34.37;;;;;;;;;;5079569;28;20555;-69
2024/03/31 03:13:32;;;;;;;31.27;29.93;;;;;;;;;;5098550;28;20845;-70
2024/03/31 03:16:02;;;;;;;35.20;33.70;;;;;;;;;;5101630;28;20458;-70
2024/03/31 03:18:28;;;;;;;34.40;32.90;;;;;;;;;;5101372;28;20974;-70
2024/03/31 03:20:57;;;;;;;28.63;27.43;;;;;;;;;;5107340;28;20469;-71
2024/03/31 03:23:23;;;;;;;29.43;28.23;;;;;;;;;;5098482;28;20481;-69
2024/03/31 03:25:56;;;;;;;30.57;29.37;;;;;;;;;;5096774;28;20462;-69
2024/03/31 03:28:23;;;;;;;30.07;28.87;;;;;;;;;;5099784;28;20479;-70
2024/03/31 03:30:50;;;;;;;29.67;28.47;;;;;;;;;;5101052;28;20458;-69
2024/03/31 03:33:16;;;;;;;29.80;28.60;;;;;;;;;;5102958;28;20460;-69
2024/03/31 03:35:44;;;;;;;29.17;28.07;;;;;;;;;;5098691;28;20506;-71
2024/03/31 03:38:11;;;;;;;29.53;28.33;;;;;;;;;;5098374;28;20464;-69
2024/03/31 03:40:38;;;;;;;30.90;29.70;;;;;;;;;;5108135;28;20450;-71
2024/03/31 03:43:07;;;;;;;28.30;27.13;;;;;;;;;;5108700;28;20473;-70
2024/03/31 03:45:33;;;;;;;28.37;27.27;;;;;;;;;;5109127;27;20453;-70
2024/03/31 03:48:01;;;;;;;29.10;27.93;;;;;;;;;;5095547;28;20826;-71
2024/03/31 03:50:27;;;;;;;29.40;28.20;;;;;;;;;;5106207;28;20462;-70
2024/03/31 03:52:54;;;;;;;29.90;28.70;;;;;;;;;;5100988;28;20472;-71
2024/03/31 03:55:21;;;;;;;28.90;27.80;;;;;;;;;;5095115;28;20537;-69
2024/03/31 03:57:48;;;;;;;32.00;30.70;;;;;;;;;;5103278;28;20563;-70
2024/03/31 04:00:16;;;;;;;31.30;30.10;;;;;;;;;;5107358;28;20507;-70
2024/03/31 04:02:43;;;;;;;32.00;30.70;;;;;;;;;;5104425;28;20462;-69
2024/03/31 04:05:09;;;;;;;28.13;27.03;;;;;;;;;;5107302;28;20462;-71
2024/03/31 04:07:37;;;;;;;29.73;28.53;;;;;;;;;;5105465;28;20474;-71
2024/03/31 04:10:03;;;;;;;29.70;28.50;;;;;;;;;;5102624;28;20585;-69
2024/03/31 04:12:30;;;;;;;28.30;27.20;;;;;;;;;;5103952;28;20505;-71
2024/03/31 04:14:56;;;;;;;29.90;28.70;;;;;;;;;;5104385;28;20482;-70
2024/03/31 04:17:25;;;;;;;28.33;27.23;;;;;;;;;;5106038;28;20465;-70
2024/03/31 04:19:51;;;;;;;28.37;27.27;;;;;;;;;;5104694;28;20617;-71
2024/03/31 04:22:18;;;;;;;27.77;26.67;;;;;;;;;;5096846;28;21097;-69
2024/03/31 04:24:45;;;;;;;27.20;26.13;;;;;;;;;;5106185;28;20489;-71
2024/03/31 04:27:12;;;;;;;28.30;27.20;;;;;;;;;;5099812;28;20925;-71
2024/03/31 04:29:38;;;;;;;25.53;24.53;;;;;;;;;;5107000;28;20487;-71
2024/03/31 04:32:06;;;;;;;27.57;26.47;;;;;;;;;;5106864;28;20461;-71
2024/03/31 04:34:34;;;;;;;27.50;26.40;;;;;;;;;;5104785;28;20541;-71
2024/03/31 04:37:02;;;;;;;27.27;26.20;;;;;;;;;;5104408;28;21010;-71
2024/03/31 04:39:28;;;;;;;24.43;23.43;;;;;;;;;;5097994;28;20458;-70
2024/03/31 04:41:56;;;;;;;25.10;24.10;;;;;;;;;;5102351;28;20470;-71
2024/03/31 04:44:22;;;;;;;24.77;23.77;;;;;;;;;;5107257;28;20610;-71
2024/03/31 04:46:50;;;;;;;24.97;23.97;;;;;;;;;;5101753;28;20474;-69
2024/03/31 04:49:16;;;;;;;23.97;23.07;;;;;;;;;;5105468;28;20488;-69
2024/03/31 04:51:45;;;;;;;23.70;22.80;;;;;;;;;;5104577;28;20458;-69
2024/03/31 04:54:11;;;;;;;24.63;23.63;;;;;;;;;;5107488;28;20457;-71
2024/03/31 04:56:39;;;;;;;25.23;24.23;;;;;;;;;;5101439;28;20461;-69
2024/03/31 04:59:07;;;;;;;27.20;26.10;;;;;;;;;;5100849;28;20470;-69
2024/03/31 05:01:34;;;;;;;26.70;25.60;;;;;;;;;;5096230;28;20501;-69
2024/03/31 05:04:00;;;;;;;25.53;24.53;;;;;;;;;;5099857;28;20490;-70
2024/03/31 05:06:27;;;;;;;27.50;26.40;;;;;;;;;;5100511;28;20564;-71
2024/03/31 05:08:55;;;;;;;26.83;25.73;;;;;;;;;;5101848;28;20474;-71
2024/03/31 05:11:22;;;;;;;28.70;27.50;;;;;;;;;;5100146;28;20468;-71
2024/03/31 05:13:48;;;;;;;28.37;27.17;;;;;;;;;;5102035;28;20491;-70
2024/03/31 05:16:16;;;;;;;28.17;26.97;;;;;;;;;;5099021;28;20471;-70
2024/03/31 05:18:42;;;;;;;27.00;25.90;;;;;;;;;;5106615;28;20461;-69
2024/03/31 05:21:10;;;;;;;27.50;26.40;;;;;;;;;;5110152;28;20469;-71
2024/03/31 05:23:37;;;;;;;28.93;27.73;;;;;;;;;;5101498;28;20497;-71
2024/03/31 05:26:11;;;;;;;29.10;27.90;;;;;;;;;;5098286;28;21079;-70
2024/03/31 05:28:37;;;;;;;26.80;25.70;;;;;;;;;;5109112;27;20467;-69
2024/03/31 05:31:04;;;;;;;26.47;25.37;;;;;;;;;;5105630;28;20469;-69
2024/03/31 05:33:31;;;;;;;26.97;25.87;;;;;;;;;;5107194;28;20463;-70
2024/03/31 05:35:58;;;;;;;25.83;24.83;;;;;;;;;;5109455;28;20493;-69
2024/03/31 05:38:24;;;;;;;25.27;24.27;;;;;;;;;;5101753;28;20468;-69
2024/03/31 05:40:52;;;;;;;26.07;25.07;;;;;;;;;;5109446;28;20578;-70
2024/03/31 05:43:19;;;;;;;26.40;25.40;;;;;;;;;;5104881;28;20572;-71
2024/03/31 05:45:48;;;;;;;26.87;25.87;;;;;;;;;;5115343;27;20461;-70
2024/03/31 05:48:14;;;;;;;27.70;26.60;;;;;;;;;;5102711;28;20469;-68
2024/03/31 05:50:42;;;;;;;26.40;25.40;;;;;;;;;;5105716;28;20527;-70
2024/03/31 05:53:08;;;;;;;24.77;23.87;;;;;;;;;;5110776;27;20468;-70
2024/03/31 05:55:35;;;;;;;25.97;24.97;;;;;;;;;;5102173;28;21117;-69
2024/03/31 05:58:02;;;;;;;26.77;25.77;;;;;;;;;;5108514;27;20453;-68
2024/03/31 06:00:30;;;;;;;25.97;24.97;;;;;;;;;;5104560;27;20947;-70
2024/03/31 06:02:57;;;;;;;27.57;26.47;;;;;;;;;;5103074;28;20485;-70
2024/03/31 06:05:24;;;;;;;25.20;24.20;;;;;;;;;;5108149;28;20461;-70
2024/03/31 06:07:50;;;;;;;24.93;23.93;;;;;;;;;;5102695;28;20472;-70
2024/03/31 06:10:18;;;;;;;25.17;24.17;;;;;;;;;;5108109;28;20483;-69
2024/03/31 06:12:44;;;;;;;25.10;24.10;;;;;;;;;;5103291;28;20486;-70
2024/03/31 06:15:11;;;;;;;24.23;23.33;;;;;;;;;;5105476;28;20473;-71
2024/03/31 06:17:39;;;;;;;23.77;22.87;;;;;;;;;;5104542;28;20554;-70
2024/03/31 06:20:07;;;;;;;24.27;23.37;;;;;;;;;;5097464;28;20461;-70
2024/03/31 06:22:34;;;;;;;23.13;22.23;;;;;;;;;;5106677;28;20464;-71
2024/03/31 06:25:01;;;;;;;23.00;22.10;;;;;;;;;;5109479;28;20558;-69
2024/03/31 06:27:27;;;;;;;24.43;23.50;;;;;;;;;;5105898;28;20468;-70
2024/03/31 06:29:54;;;;;;;23.83;22.93;;;;;;;;;;5100165;28;20463;-71
2024/03/31 06:32:20;;;;;;;23.77;22.87;;;;;;;;;;5098873;28;20466;-71
2024/03/31 06:34:52;;;;;;;21.40;20.60;;;;;;;;;;5104266;28;20514;-70
2024/03/31 06:37:18;;;;;;;21.63;20.73;;;;;;;;;;5103897;28;20952;-70
2024/03/31 06:39:45;;;;;;;20.90;20.10;;;;;;;;;;5093727;28;20863;-69
2024/03/31 06:42:11;;;;;;;20.93;20.13;;;;;;;;;;5101550;28;20469;-70
2024/03/31 06:44:38;;;;;;;20.40;19.60;;;;;;;;;;5099921;28;20522;-70
2024/03/31 06:47:05;;;;;;;20.90;20.10;;;;;;;;;;5100805;28;21013;-70
2024/03/31 06:49:32;;;;;;;19.53;18.73;;;;;;;;;;5098510;28;20476;-70
2024/03/31 06:52:00;;;;;;;19.07;18.27;;;;;;;;;;5101908;28;20480;-71
2024/03/31 06:54:27;;;;;;;19.27;18.47;;;;;;;;;;5098565;28;20461;-70
2024/03/31 06:56:54;;;;;;;18.03;17.33;;;;;;;;;;5099175;28;20461;-71
2024/03/31 06:59:21;;;;;;;18.53;17.73;;;;;;;;;;5101222;28;20454;-71
2024/03/31 07:01:47;;;;;;;18.20;17.40;;;;;;;;;;5107322;28;20546;-71
2024/03/31 07:04:15;;;;;;;17.83;17.03;;;;;;;;;;5106588;28;20497;-69
2024/03/31 07:06:41;;;;;;;17.63;16.83;;;;;;;;;;5104489;28;20539;-70
2024/03/31 07:09:10;;;;;;;17.53;16.73;;;;;;;;;;5106734;28;21180;-70
2024/03/31 07:11:36;;;;;;;17.53;16.73;;;;;;;;;;5097786;28;20463;-71
2024/03/31 07:14:03;;;;;;;17.37;16.57;;;;;;;;;;5100760;28;20612;-71
2024/03/31 07:16:29;;;;;;;17.40;16.60;;;;;;;;;;5099670;28;20833;-71
2024/03/31 07:18:56;;;;;;;17.57;16.77;;;;;;;;;;5105685;28;20465;-72
2024/03/31 07:21:23;;;;;;;16.80;16.00;;;;;;;;;;5108144;28;20459;-71
2024/03/31 07:23:50;;;;;;;16.60;15.80;;;;;;;;;;5100354;28;20561;-70
2024/03/31 07:26:18;;;;;;;17.00;16.20;;;;;;;;;;5108022;28;20474;-71
2024/03/31 07:28:45;;;;;;;16.83;16.03;;;;;;;;;;5100497;28;20880;-71
2024/03/31 07:31:11;;;;;;;16.60;15.80;;;;;;;;;;5100595;28;20467;-71
2024/03/31 07:33:38;;;;;;;16.10;15.40;;;;;;;;;;5106172;28;20499;-70
2024/03/31 07:36:04;;;;;;;16.60;15.80;;;;;;;;;;5100778;28;21149;-72
2024/03/31 07:38:32;;;;;;;15.80;15.10;;;;;;;;;;5099216;28;20468;-69
2024/03/31 07:40:58;;;;;;;16.40;15.60;;;;;;;;;;5097589;28;20847;-70
2024/03/31 07:43:27;;;;;;;16.77;15.97;;;;;;;;;;5094470;28;20966;-71
2024/03/31 07:45:53;;;;;;;16.07;15.30;;;;;;;;;;5095789;28;20475;-71
2024/03/31 07:48:21;;;;;;;16.40;15.60;;;;;;;;;;5096407;28;20470;-71
2024/03/31 07:50:47;;;;;;;16.30;15.50;;;;;;;;;;5101736;27;20466;-70
2024/03/31 07:53:14;;;;;;;16.27;15.47;;;;;;;;;;5092945;28;20490;-70
2024/03/31 07:55:41;;;;;;;16.53;15.73;;;;;;;;;;5093278;28;20453;-71
2024/03/31 07:58:08;;;;;;;16.47;15.67;;;;;;;;;;5105229;28;20480;-72
2024/03/31 08:00:35;;;;;;;16.80;16.00;;;;;;;;;;5109909;27;20457;-71
2024/03/31 08:03:03;;;;;;;15.70;15.00;;;;;;;;;;5099190;28;20462;-71
2024/03/31 08:05:29;;;;;;;15.90;15.20;;;;;;;;;;5093511;28;20498;-71
2024/03/31 08:07:56;;;;;;;16.40;15.60;;;;;;;;;;5104605;27;20511;-70
2024/03/31 08:10:22;;;;;;;16.90;16.10;;;;;;;;;;5104466;27;20470;-72
2024/03/31 08:12:50;;;;;;;17.30;16.40;;;;;;;;;;5096876;27;20481;-70
2024/03/31 08:15:17;;;;;;;16.90;16.10;;;;;;;;;;5096706;28;20467;-71
2024/03/31 08:17:45;;;;;;;17.03;16.23;;;;;;;;;;5106375;28;20973;-71
2024/03/31 08:20:12;;;;;;;17.00;16.20;;;;;;;;;;5104923;28;20466;-72
2024/03/31 08:22:38;;;;;;;17.00;16.20;;;;;;;;;;5096654;28;20459;-71
2024/03/31 08:25:05;;;;;;;17.80;16.93;;;;;;;;;;5104747;28;20492;-70
2024/03/31 08:27:31;;;;;;;17.13;16.33;;;;;;;;;;5099767;28;20550;-70
2024/03/31 08:29:59;;;;;;;18.13;17.33;;;;;;;;;;5105611;28;20462;-70
2024/03/31 08:32:25;;;;;;;17.53;16.73;;;;;;;;;;5101964;28;20961;-71
2024/03/31 08:34:53;;;;;;;17.30;16.50;;;;;;;;;;5104935;28;20470;-70
2024/03/31 08:37:19;;;;;;;17.40;16.60;;;;;;;;;;5101328;28;20933;-72
2024/03/31 08:39:47;;;;;;;17.03;16.30;;;;;;;;;;5105835;28;20468;-70
2024/03/31 08:42:15;;;;;;;17.00;16.30;;;;;;;;;;5103909;28;20464;-70
2024/03/31 08:44:43;;;;;;;16.73;16.03;;;;;;;;;;5093097;28;20570;-71
2024/03/31 08:47:11;;;;;;;17.20;16.50;;;;;;;;;;5098009;28;20462;-70
2024/03/31 08:49:38;;;;;;;16.90;16.20;;;;;;;;;;5105978;28;20815;-70
2024/03/31 08:52:06;;;;;;;16.50;15.80;;;;;;;;;;5105638;28;20469;-71
2024/03/31 08:54:34;;;;;;;16.67;15.97;;;;;;;;;;5112062;27;20466;-69
2024/03/31 08:57:00;;;;;;;16.00;15.40;;;;;;;;;;5105027;28;20466;-69
2024/03/31 08:59:27;;;;;;;16.00;15.40;;;;;;;;;;5101543;28;20481;-71
2024/03/31 09:01:54;;;;;;;16.47;15.87;;;;;;;;;;5102890;27;20469;-71
2024/03/31 09:04:21;;;;;;;15.23;14.73;;;;;;;;;;5100768;28;21123;-70
2024/03/31 09:06:47;;;;;;;15.20;14.70;;;;;;;;;;5110102;28;20464;-71
2024/03/31 09:09:23;;;;;;;14.40;13.90;;;;;;;;;;5095979;28;21004;-70
2024/03/31 09:11:49;;;;;;;13.90;13.50;;;;;;;;;;5107708;27;20475;-71
2024/03/31 09:14:16;;;;;;;13.63;13.23;;;;;;;;;;5112942;27;20861;-69
2024/03/31 09:16:46;;;;;;;13.77;13.37;;;;;;;;;;5098033;27;20484;-70
2024/03/31 09:19:14;;;;;;;13.10;12.70;;;;;;;;;;5105516;28;20468;-70
2024/03/31 09:21:44;;;;;;;12.83;12.43;;;;;;;;;;5105640;28;20892;-69
2024/03/31 09:24:11;;;;;;;13.80;13.40;;;;;;;;;;5104021;28;21186;-72
2024/03/31 09:26:39;;;;;;;13.50;13.10;;;;;;;;;;5109861;27;20552;-71
2024/03/31 09:29:06;;;;;;;13.30;12.90;;;;;;;;;;5108474;27;20467;-70
2024/03/31 09:31:33;;;;;;;13.40;13.00;;;;;;;;;;5098400;28;20554;-70
2024/03/31 09:34:00;;;;;;;13.20;12.80;;;;;;;;;;5100418;27;20471;-71
2024/03/31 09:36:27;;;;;;;13.53;13.13;;;;;;;;;;5088596;28;20985;-73
2024/03/31 09:38:54;;;;;;;13.70;13.30;;;;;;;;;;5094493;27;21049;-71
2024/03/31 09:41:21;;;;;;;13.60;13.20;;;;;;;;;;5098720;28;20460;-70
2024/03/31 09:43:49;;;;;;;13.67;13.27;;;;;;;;;;5096421;28;20460;-71
2024/03/31 09:46:16;;;;;;;13.63;13.23;;;;;;;;;;5094983;28;20858;-71
2024/03/31 09:48:44;;;;;;;14.30;13.80;;;;;;;;;;5096463;28;20495;-71
2024/03/31 09:51:14;;;;;;;14.60;14.10;;;;;;;;;;5094456;27;21282;-71
2024/03/31 09:53:40;;;;;;;14.40;13.90;;;;;;;;;;5095875;28;20454;-73
2024/03/31 09:56:09;;;;;;;14.10;13.63;;;;;;;;;;5096987;27;21022;-72
2024/03/31 09:58:36;;;;;;;14.50;14.00;;;;;;;;;;5095233;27;20567;-71
2024/03/31 10:01:06;;;;;;;15.03;14.53;;;;;;;;;;5098570;27;20471;-71
2024/03/31 10:03:35;;;;;;;15.03;14.53;;;;;;;;;;5094078;27;20470;-71
2024/03/31 10:06:03;;;;;;;15.33;14.83;;;;;;;;;;5093369;28;21029;-71
2024/03/31 10:08:29;;;;;;;15.47;14.97;;;;;;;;;;5093736;27;20506;-71
2024/03/31 10:10:57;;;;;;;15.10;14.60;;;;;;;;;;5094347;27;20536;-70
2024/03/31 10:13:24;;;;;;;15.63;15.13;;;;;;;;;;5106516;27;20489;-70
2024/03/31 10:15:51;;;;;;;15.30;14.80;;;;;;;;;;5112206;27;20540;-71
2024/03/31 10:18:19;;;;;;;15.10;14.60;;;;;;;;;;5110849;27;20961;-71
2024/03/31 10:20:47;;;;;;;14.90;14.40;;;;;;;;;;5096070;27;20717;-70
2024/03/31 10:23:13;;;;;;;14.90;14.40;;;;;;;;;;5110676;27;20994;-71
2024/03/31 10:25:42;;;;;;;15.40;14.80;;;;;;;;;;5112523;27;20559;-72
2024/03/31 10:28:09;;;;;;;14.77;14.27;;;;;;;;;;5113403;27;20551;-70
2024/03/31 10:30:37;;;;;;;15.10;14.60;;;;;;;;;;5107588;27;20464;-72
2024/03/31 10:33:03;;;;;;;15.47;14.90;;;;;;;;;;5113128;27;20969;-68
2024/03/31 10:35:32;;;;;;;15.30;14.80;;;;;;;;;;5113972;27;20846;-70
2024/03/31 10:37:59;;;;;;;15.27;14.77;;;;;;;;;;5101963;27;20492;-71
2024/03/31 10:40:26;;;;;;;15.00;14.50;;;;;;;;;;5113609;27;20467;-69
2024/03/31 10:42:53;;;;;;;15.00;14.50;;;;;;;;;;5109230;27;20460;-72
2024/03/31 10:45:21;;;;;;;15.20;14.70;;;;;;;;;;5113435;27;20497;-71
2024/03/31 10:47:47;;;;;;;15.40;14.90;;;;;;;;;;5103933;27;20474;-71
2024/03/31 10:50:14;;;;;;;15.30;14.80;;;;;;;;;;5114525;27;20473;-73
2024/03/31 10:52:42;;;;;;;16.13;15.53;;;;;;;;;;5109507;27;20496;-70
2024/03/31 10:55:11;;;;;;;15.87;15.27;;;;;;;;;;5098459;27;20502;-72
2024/03/31 10:57:37;;;;;;;15.33;14.83;;;;;;;;;;5104469;27;20499;-71
2024/03/31 11:00:05;;;;;;;15.40;14.80;;;;;;;;;;5100210;27;21112;-72
2024/03/31 11:02:33;;;;;;;15.30;14.70;;;;;;;;;;5109333;27;20468;-72
2024/03/31 11:05:01;;;;;;;15.77;15.17;;;;;;;;;;5102259;27;20500;-73
2024/03/31 11:07:27;;;;;;;15.13;14.63;;;;;;;;;;5112705;27;20464;-72
2024/03/31 11:09:56;;;;;;;15.57;14.97;;;;;;;;;;5114443;27;20484;-71
2024/03/31 11:12:22;;;;;;;15.10;14.60;;;;;;;;;;5103082;27;20491;-72
2024/03/31 11:14:52;;;;;;;14.93;14.43;;;;;;;;;;5093112;28;20460;-72
2024/03/31 11:17:18;;;;;;;15.10;14.60;;;;;;;;;;5088631;28;20470;-73
2024/03/31 11:19:45;;;;;;;14.70;14.20;;;;;;;;;;5080672;28;20800;-71
2024/03/31 11:22:12;;;;;;;15.17;14.67;;;;;;;;;;5086925;28;20478;-72
2024/03/31 11:24:40;;;;;;;15.60;15.00;;;;;;;;;;5090839;28;20809;-71
2024/03/31 11:27:09;;;;;;;14.90;14.40;;;;;;;;;;5090492;28;20566;-69
2024/03/31 11:29:37;;;;;;;15.00;14.50;;;;;;;;;;5089090;28;20511;-70
2024/03/31 11:32:03;;;;;;;14.67;14.17;;;;;;;;;;5089763;28;20456;-70
2024/03/31 11:34:30;;;;;;;14.70;14.20;;;;;;;;;;5080633;28;20471;-71
2024/03/31 11:36:57;;;;;;;15.50;15.00;;;;;;;;;;5090200;28;20556;-70
2024/03/31 11:39:25;;;;;;;15.73;15.23;;;;;;;;;;5083142;28;20606;-70
2024/03/31 11:41:51;;;;;;;14.90;14.40;;;;;;;;;;5092050;28;21229;-71
2024/03/31 11:44:20;;;;;;;15.80;15.20;;;;;;;;;;5090272;28;20472;-72
2024/03/31 11:46:48;;;;;;;14.80;14.30;;;;;;;;;;5089468;28;20462;-69
2024/03/31 11:49:16;;;;;;;15.10;14.60;;;;;;;;;;5085681;28;20464;-71
2024/03/31 11:51:43;;;;;;;15.00;14.50;;;;;;;;;;5081944;28;20825;-70
2024/03/31 11:54:10;;;;;;;15.00;14.50;;;;;;;;;;5088892;28;20875;-69
2024/03/31 11:56:37;;;;;;;15.07;14.57;;;;;;;;;;5085523;28;20470;-70
2024/03/31 11:59:13;;;;;;;14.30;13.80;;;;;;;;;;5093382;28;20472;-69
2024/03/31 12:01:40;;;;;;;14.90;14.40;;;;;;;;;;5087411;28;20461;-71
2024/03/31 12:04:07;;;;;;;14.77;14.27;;;;;;;;;;5086669;28;20462;-70
2024/03/31 12:06:34;;;;;;;16.07;15.47;;;;;;;;;;5085696;28;20463;-70
2024/03/31 12:09:02;;;;;;;15.23;14.73;;;;;;;;;;5088983;28;20476;-69
2024/03/31 12:11:29;;;;;;;15.30;14.80;;;;;;;;;;5083092;28;20555;-70
2024/03/31 12:13:57;;;;;;;15.87;15.27;;;;;;;;;;5106192;27;20920;-71
2024/03/31 12:16:23;;;;;;;15.60;15.00;;;;;;;;;;5111564;27;20461;-70
2024/03/31 12:18:52;;;;;;;15.50;15.00;;;;;;;;;;5107809;27;20471;-71
2024/03/31 12:21:19;;;;;;;16.00;15.40;;;;;;;;;;5105471;27;20805;-70
2024/03/31 12:23:46;;;;;;;15.30;14.80;;;;;;;;;;5110466;27;21155;-68
2024/03/31 12:26:14;;;;;;;15.93;15.33;;;;;;;;;;5111281;27;20490;-69
2024/03/31 12:28:41;;;;;;;15.40;14.80;;;;;;;;;;5104244;27;20587;-71
2024/03/31 12:31:07;;;;;;;15.40;14.80;;;;;;;;;;5110049;27;20961;-69
2024/03/31 12:33:34;;;;;;;14.90;14.40;;;;;;;;;;5105448;27;20975;-69
2024/03/31 12:36:02;;;;;;;14.97;14.47;;;;;;;;;;5110476;28;20476;-71
2024/03/31 12:38:29;;;;;;;14.70;14.20;;;;;;;;;;5112156;28;20547;-69
2024/03/31 12:40:55;;;;;;;14.90;14.40;;;;;;;;;;5108505;28;20964;-70
2024/03/31 12:43:26;;;;;;;15.60;15.00;;;;;;;;;;5110186;28;20468;-69
2024/03/31 12:45:52;;;;;;;15.10;14.60;;;;;;;;;;5112675;28;20571;-68
2024/03/31 12:48:20;;;;;;;15.10;14.60;;;;;;;;;;5102768;28;20469;-69
2024/03/31 12:50:49;;;;;;;14.73;14.23;;;;;;;;;;5106046;28;20460;-69
2024/03/31 12:53:18;;;;;;;15.47;14.87;;;;;;;;;;5109680;28;20474;-68
2024/03/31 12:55:44;;;;;;;15.30;14.70;;;;;;;;;;5107023;28;20962;-69
2024/03/31 12:58:12;;;;;;;15.37;14.77;;;;;;;;;;5109339;28;21022;-70
2024/03/31 13:00:39;;;;;;;15.47;14.87;;;;;;;;;;5104252;28;20867;-70
2024/03/31 13:03:08;;;;;;;15.73;15.13;;;;;;;;;;5111418;28;20772;-69
2024/03/31 13:05:34;;;;;;;15.40;14.80;;;;;;;;;;5102533;28;20491;-70
2024/03/31 13:08:02;;;;;;;15.03;14.53;;;;;;;;;;5111758;28;20454;-68
2024/03/31 13:10:31;;;;;;;15.03;14.53;;;;;;;;;;5109221;28;20963;-69
2024/03/31 13:12:58;;;;;;;15.23;14.63;;;;;;;;;;5109897;28;20495;-71
2024/03/31 13:15:24;;;;;;;15.20;14.60;;;;;;;;;;5103870;28;20465;-69
2024/03/31 13:17:52;;;;;;;15.27;14.67;;;;;;;;;;5103429;28;20473;-68
2024/03/31 13:20:18;;;;;;;15.63;15.03;;;;;;;;;;5110294;28;20467;-69
2024/03/31 13:22:45;;;;;;;15.37;14.77;;;;;;;;;;5106333;28;20490;-71
2024/03/31 13:25:11;;;;;;;15.13;14.63;;;;;;;;;;5109719;28;20484;-70
2024/03/31 13:27:39;;;;;;;16.30;15.70;;;;;;;;;;5110580;28;20456;-69
2024/03/31 13:30:06;;;;;;;15.57;14.97;;;;;;;;;;5108228;28;20839;-69
2024/03/31 13:32:34;;;;;;;15.70;15.10;;;;;;;;;;5101790;28;20469;-69
2024/03/31 13:35:00;;;;;;;15.07;14.47;;;;;;;;;;5099436;28;20492;-69
2024/03/31 13:37:27;;;;;;;15.20;14.60;;;;;;;;;;5106117;28;20545;-68
2024/03/31 13:39:53;;;;;;;15.47;14.87;;;;;;;;;;5101827;27;20466;-69
2024/03/31 13:42:20;;;;;;;16.00;15.40;;;;;;;;;;5115205;27;20464;-71
2024/03/31 13:44:48;;;;;;;16.30;15.70;;;;;;;;;;5116912;27;20959;-69
2024/03/31 13:47:15;;;;;;;16.57;15.97;;;;;;;;;;5108733;27;20466;-69
2024/03/31 13:49:42;;;;;;;16.30;15.70;;;;;;;;;;5115386;27;20835;-69
2024/03/31 13:52:09;;;;;;;15.93;15.33;;;;;;;;;;5107049;27;20470;-69
2024/03/31 13:54:35;;;;;;;16.20;15.60;;;;;;;;;;5114307;27;20956;-72
2024/03/31 13:57:02;;;;;;;16.30;15.70;;;;;;;;;;5106166;27;20462;-69
2024/03/31 13:59:29;;;;;;;16.57;15.97;;;;;;;;;;5116958;27;20472;-68
2024/03/31 14:01:58;;;;;;;16.00;15.40;;;;;;;;;;5114850;27;20464;-68
2024/03/31 14:04:24;;;;;;;16.03;15.43;;;;;;;;;;5109941;27;20452;-69
2024/03/31 14:06:51;;;;;;;15.47;14.87;;;;;;;;;;5108479;27;20530;-69
2024/03/31 14:09:18;;;;;;;15.87;15.27;;;;;;;;;;5114439;27;20516;-68
2024/03/31 14:11:45;;;;;;;15.93;15.33;;;;;;;;;;5110354;27;20539;-69
2024/03/31 14:14:11;;;;;;;15.87;15.27;;;;;;;;;;5110709;27;20834;-70